sensor_id;sensor_type;location;lat;lon;timestamp;temperature;humidity
56076;DHT22;41951;49.022;12.066;2024-02-21T00:00:55;7.10;99.90
56076;DHT22;41951;49.022;12.066;2024-02-21T00:03:21;6.70;99.90
56076;DHT22;41951;49.022;12.066;2024-02-21T00:05:46;8.50;99.90
56076;DHT22;41951;49.022;12.066;2024-02-21T00:08:12;8.60;99.90
56076;DHT22;41951;49.022;12.066;2024-02-21T00:10:37;6.60;99.90
56076;DHT22;41951;49.022;12.066;2024-02-21T00:13:03;6.60;99.90
56076;DHT22;41951;49.022;12.066;2024-02-21T00:15:29;6.60;99.90
56076;DHT22;41951;49.022;12.066;2024-02-21T00:17:55;6.60;99.90
56076;DHT22;41951;49.022;12.066;2024-02-21T00:20:20;6.70;99.90
56076;DHT22;41951;49.022;12.066;2024-02-21T00:22:46;6.70;99.90
56076;DHT22;41951;49.022;12.066;2024-02-21T00:25:12;6.70;99.90
56076;DHT22;41951;49.022;12.066;2024-02-21T00:27:38;6.70;99.90
56076;DHT22;41951;49.022;12.066;2024-02-21T00:30:05;8.10;99.90
56076;DHT22;41951;49.022;12.066;2024-02-21T00:32:31;6.70;99.90
56076;DHT22;41951;49.022;12.066;2024-02-21T00:34:57;8.70;99.90
56076;DHT22;41951;49.022;12.066;2024-02-21T00:37:23;6.80;99.90
56076;DHT22;41951;49.022;12.066;2024-02-21T00:39:48;6.80;99.90
56076;DHT22;41951;49.022;12.066;2024-02-21T00:42:14;6.70;99.90
56076;DHT22;41951;49.022;12.066;2024-02-21T00:44:40;6.70;99.90
56076;DHT22;41951;49.022;12.066;2024-02-21T00:47:05;6.70;99.90
56076;DHT22;41951;49.022;12.066;2024-02-21T00:49:31;6.70;99.90
56076;DHT22;41951;49.022;12.066;2024-02-21T00:51:56;6.70;99.90
56076;DHT22;41951;49.022;12.066;2024-02-21T00:54:22;6.80;99.90
56076;DHT22;41951;49.022;12.066;2024-02-21T00:56:48;8.10;99.90
56076;DHT22;41951;49.022;12.066;2024-02-21T00:59:14;6.70;99.90
56076;DHT22;41951;49.022;12.066;2024-02-21T01:01:39;6.70;99.90
56076;DHT22;41951;49.022;12.066;2024-02-21T01:04:08;6.70;99.90
56076;DHT22;41951;49.022;12.066;2024-02-21T01:06:34;6.70;99.90
56076;DHT22;41951;49.022;12.066;2024-02-21T01:09:00;6.60;99.90
56076;DHT22;41951;49.022;12.066;2024-02-21T01:11:25;6.60;99.90
56076;DHT22;41951;49.022;12.066;2024-02-21T01:13:51;6.50;99.90
56076;DHT22;41951;49.022;12.066;2024-02-21T01:16:17;6.50;99.90
56076;DHT22;41951;49.022;12.066;2024-02-21T01:18:42;6.50;99.90
56076;DHT22;41951;49.022;12.066;2024-02-21T01:21:08;6.50;99.90
56076;DHT22;41951;49.022;12.066;2024-02-21T01:23:36;7.50;99.90
56076;DHT22;41951;49.022;12.066;2024-02-21T01:26:02;6.40;99.90
56076;DHT22;41951;49.022;12.066;2024-02-21T01:28:28;6.40;99.90
56076;DHT22;41951;49.022;12.066;2024-02-21T01:30:54;6.40;99.90
56076;DHT22;41951;49.022;12.066;2024-02-21T01:33:20;6.40;99.90
56076;DHT22;41951;49.022;12.066;2024-02-21T01:35:45;6.40;99.90
56076;DHT22;41951;49.022;12.066;2024-02-21T01:38:13;6.50;99.90
56076;DHT22;41951;49.022;12.066;2024-02-21T01:40:38;6.30;99.90
56076;DHT22;41951;49.022;12.066;2024-02-21T01:43:16;6.20;99.90
56076;DHT22;41951;49.022;12.066;2024-02-21T01:45:42;6.20;99.90
56076;DHT22;41951;49.022;12.066;2024-02-21T01:48:08;6.20;99.90
56076;DHT22;41951;49.022;12.066;2024-02-21T01:50:33;7.90;99.90
56076;DHT22;41951;49.022;12.066;2024-02-21T01:53:00;6.20;99.90
56076;DHT22;41951;49.022;12.066;2024-02-21T01:55:26;6.20;99.90
56076;DHT22;41951;49.022;12.066;2024-02-21T01:57:51;7.10;99.90
56076;DHT22;41951;49.022;12.066;2024-02-21T02:00:17;6.20;99.90
56076;DHT22;41951;49.022;12.066;2024-02-21T02:02:44;6.20;99.90
56076;DHT22;41951;49.022;12.066;2024-02-21T02:05:11;6.20;99.90
56076;DHT22;41951;49.022;12.066;2024-02-21T02:07:37;6.20;99.90
56076;DHT22;41951;49.022;12.066;2024-02-21T02:10:03;6.20;99.90
56076;DHT22;41951;49.022;12.066;2024-02-21T02:12:29;6.20;99.90
56076;DHT22;41951;49.022;12.066;2024-02-21T02:14:59;6.20;99.90
56076;DHT22;41951;49.022;12.066;2024-02-21T02:17:25;6.20;99.90
56076;DHT22;41951;49.022;12.066;2024-02-21T02:19:51;6.20;99.90
56076;DHT22;41951;49.022;12.066;2024-02-21T02:22:25;6.20;99.90
56076;DHT22;41951;49.022;12.066;2024-02-21T02:24:53;6.50;99.90
56076;DHT22;41951;49.022;12.066;2024-02-21T02:27:18;6.20;99.90
56076;DHT22;41951;49.022;12.066;2024-02-21T02:29:44;6.20;99.90
56076;DHT22;41951;49.022;12.066;2024-02-21T02:32:10;7.00;99.90
56076;DHT22;41951;49.022;12.066;2024-02-21T02:34:35;5.40;99.90
56076;DHT22;41951;49.022;12.066;2024-02-21T02:37:01;6.10;99.90
56076;DHT22;41951;49.022;12.066;2024-02-21T02:39:27;6.00;99.90
56076;DHT22;41951;49.022;12.066;2024-02-21T02:41:53;7.30;99.90
56076;DHT22;41951;49.022;12.066;2024-02-21T02:44:18;6.10;99.90
56076;DHT22;41951;49.022;12.066;2024-02-21T02:46:44;6.00;99.90
56076;DHT22;41951;49.022;12.066;2024-02-21T02:49:09;7.10;99.90
56076;DHT22;41951;49.022;12.066;2024-02-21T02:51:35;6.00;99.90
56076;DHT22;41951;49.022;12.066;2024-02-21T02:54:01;6.00;99.90
56076;DHT22;41951;49.022;12.066;2024-02-21T02:56:27;6.00;99.90
56076;DHT22;41951;49.022;12.066;2024-02-21T02:58:52;6.00;99.90
56076;DHT22;41951;49.022;12.066;2024-02-21T03:01:18;6.00;99.90
56076;DHT22;41951;49.022;12.066;2024-02-21T03:03:44;6.10;99.90
56076;DHT22;41951;49.022;12.066;2024-02-21T03:06:11;6.00;99.90
56076;DHT22;41951;49.022;12.066;2024-02-21T03:08:36;6.10;99.90
56076;DHT22;41951;49.022;12.066;2024-02-21T03:11:05;6.00;99.90
56076;DHT22;41951;49.022;12.066;2024-02-21T03:13:30;6.00;99.90
56076;DHT22;41951;49.022;12.066;2024-02-21T03:15:56;8.10;99.90
56076;DHT22;41951;49.022;12.066;2024-02-21T03:18:22;6.00;99.90
56076;DHT22;41951;49.022;12.066;2024-02-21T03:20:47;6.00;99.90
56076;DHT22;41951;49.022;12.066;2024-02-21T03:23:13;6.10;99.90
56076;DHT22;41951;49.022;12.066;2024-02-21T03:25:39;6.10;99.90
56076;DHT22;41951;49.022;12.066;2024-02-21T03:28:04;6.20;99.90
56076;DHT22;41951;49.022;12.066;2024-02-21T03:30:30;6.10;99.90
56076;DHT22;41951;49.022;12.066;2024-02-21T03:32:56;6.20;99.90
56076;DHT22;41951;49.022;12.066;2024-02-21T03:35:21;6.20;99.90
56076;DHT22;41951;49.022;12.066;2024-02-21T03:37:47;6.20;99.90
56076;DHT22;41951;49.022;12.066;2024-02-21T03:40:13;6.20;99.90
56076;DHT22;41951;49.022;12.066;2024-02-21T03:42:38;6.20;99.90
56076;DHT22;41951;49.022;12.066;2024-02-21T03:45:04;6.20;99.90
56076;DHT22;41951;49.022;12.066;2024-02-21T03:47:30;6.20;99.90
56076;DHT22;41951;49.022;12.066;2024-02-21T03:49:56;6.20;99.90
56076;DHT22;41951;49.022;12.066;2024-02-21T03:52:22;6.10;99.90
56076;DHT22;41951;49.022;12.066;2024-02-21T03:54:47;6.10;99.90
56076;DHT22;41951;49.022;12.066;2024-02-21T03:57:13;6.00;99.90
56076;DHT22;41951;49.022;12.066;2024-02-21T03:59:39;6.00;99.90
56076;DHT22;41951;49.022;12.066;2024-02-21T04:02:05;6.00;99.90
56076;DHT22;41951;49.022;12.066;2024-02-21T04:04:36;6.00;99.90
56076;DHT22;41951;49.022;12.066;2024-02-21T04:07:03;5.90;99.90
56076;DHT22;41951;49.022;12.066;2024-02-21T04:09:35;5.90;99.90
56076;DHT22;41951;49.022;12.066;2024-02-21T04:12:01;6.00;99.90
56076;DHT22;41951;49.022;12.066;2024-02-21T04:14:27;6.00;99.90
56076;DHT22;41951;49.022;12.066;2024-02-21T04:16:52;6.00;99.90
56076;DHT22;41951;49.022;12.066;2024-02-21T04:19:18;5.70;99.90
56076;DHT22;41951;49.022;12.066;2024-02-21T04:21:43;6.10;99.90
56076;DHT22;41951;49.022;12.066;2024-02-21T04:24:10;6.20;99.90
56076;DHT22;41951;49.022;12.066;2024-02-21T04:26:35;6.10;99.90
56076;DHT22;41951;49.022;12.066;2024-02-21T04:29:01;6.20;99.90
56076;DHT22;41951;49.022;12.066;2024-02-21T04:31:27;6.10;99.90
56076;DHT22;41951;49.022;12.066;2024-02-21T04:33:52;6.20;99.90
56076;DHT22;41951;49.022;12.066;2024-02-21T04:36:18;6.20;99.90
56076;DHT22;41951;49.022;12.066;2024-02-21T04:38:43;6.10;99.90
56076;DHT22;41951;49.022;12.066;2024-02-21T04:41:09;6.20;99.90
56076;DHT22;41951;49.022;12.066;2024-02-21T04:43:35;6.10;99.90
56076;DHT22;41951;49.022;12.066;2024-02-21T04:46:00;6.10;99.90
56076;DHT22;41951;49.022;12.066;2024-02-21T04:48:26;6.00;99.90
56076;DHT22;41951;49.022;12.066;2024-02-21T04:50:51;6.10;99.90
56076;DHT22;41951;49.022;12.066;2024-02-21T04:53:17;6.10;99.90
56076;DHT22;41951;49.022;12.066;2024-02-21T04:55:43;6.10;99.90
56076;DHT22;41951;49.022;12.066;2024-02-21T04:58:08;6.10;99.90
56076;DHT22;41951;49.022;12.066;2024-02-21T05:00:34;6.10;99.90
56076;DHT22;41951;49.022;12.066;2024-02-21T05:03:00;6.20;99.90
56076;DHT22;41951;49.022;12.066;2024-02-21T05:05:25;6.10;99.90
56076;DHT22;41951;49.022;12.066;2024-02-21T05:07:51;6.10;99.90
56076;DHT22;41951;49.022;12.066;2024-02-21T05:10:16;6.20;99.90
56076;DHT22;41951;49.022;12.066;2024-02-21T05:12:43;6.20;99.90
56076;DHT22;41951;49.022;12.066;2024-02-21T05:15:09;6.20;99.90
56076;DHT22;41951;49.022;12.066;2024-02-21T05:17:35;6.20;99.90
56076;DHT22;41951;49.022;12.066;2024-02-21T05:20:01;6.20;99.90
56076;DHT22;41951;49.022;12.066;2024-02-21T05:22:26;6.10;99.90
56076;DHT22;41951;49.022;12.066;2024-02-21T05:24:52;6.20;99.90
56076;DHT22;41951;49.022;12.066;2024-02-21T05:27:17;6.20;99.90
56076;DHT22;41951;49.022;12.066;2024-02-21T05:29:43;6.10;99.90
56076;DHT22;41951;49.022;12.066;2024-02-21T05:32:09;6.10;99.90
56076;DHT22;41951;49.022;12.066;2024-02-21T05:34:35;6.20;99.90
56076;DHT22;41951;49.022;12.066;2024-02-21T05:37:00;6.10;99.90
56076;DHT22;41951;49.022;12.066;2024-02-21T05:39:26;6.10;99.90
56076;DHT22;41951;49.022;12.066;2024-02-21T05:41:52;6.20;99.90
56076;DHT22;41951;49.022;12.066;2024-02-21T05:44:18;6.20;99.90
56076;DHT22;41951;49.022;12.066;2024-02-21T05:46:44;6.20;99.90
56076;DHT22;41951;49.022;12.066;2024-02-21T05:49:10;6.20;99.90
56076;DHT22;41951;49.022;12.066;2024-02-21T05:51:36;6.20;99.90
56076;DHT22;41951;49.022;12.066;2024-02-21T05:54:02;6.20;99.90
56076;DHT22;41951;49.022;12.066;2024-02-21T05:56:27;6.20;99.90
56076;DHT22;41951;49.022;12.066;2024-02-21T05:58:53;6.20;99.90
56076;DHT22;41951;49.022;12.066;2024-02-21T06:01:19;6.20;99.90
56076;DHT22;41951;49.022;12.066;2024-02-21T06:03:46;6.20;99.90
56076;DHT22;41951;49.022;12.066;2024-02-21T06:06:11;6.20;99.90
56076;DHT22;41951;49.022;12.066;2024-02-21T06:08:39;6.20;99.90
56076;DHT22;41951;49.022;12.066;2024-02-21T06:11:05;6.10;99.90
56076;DHT22;41951;49.022;12.066;2024-02-21T06:13:30;6.10;99.90
56076;DHT22;41951;49.022;12.066;2024-02-21T06:15:56;6.20;99.90
56076;DHT22;41951;49.022;12.066;2024-02-21T06:18:22;6.20;99.90
56076;DHT22;41951;49.022;12.066;2024-02-21T06:20:47;6.20;99.90
56076;DHT22;41951;49.022;12.066;2024-02-21T06:23:15;6.20;99.90
56076;DHT22;41951;49.022;12.066;2024-02-21T06:25:41;6.10;99.90
56076;DHT22;41951;49.022;12.066;2024-02-21T06:28:06;6.10;99.90
56076;DHT22;41951;49.022;12.066;2024-02-21T06:30:32;6.10;99.90
56076;DHT22;41951;49.022;12.066;2024-02-21T06:32:57;6.10;99.90
56076;DHT22;41951;49.022;12.066;2024-02-21T06:35:24;6.20;99.90
56076;DHT22;41951;49.022;12.066;2024-02-21T06:37:50;6.20;99.90
56076;DHT22;41951;49.022;12.066;2024-02-21T06:40:17;6.20;99.90
56076;DHT22;41951;49.022;12.066;2024-02-21T06:42:43;6.20;99.90
56076;DHT22;41951;49.022;12.066;2024-02-21T06:45:09;6.20;99.90
56076;DHT22;41951;49.022;12.066;2024-02-21T06:47:34;6.20;99.90
56076;DHT22;41951;49.022;12.066;2024-02-21T06:50:00;6.20;99.90
56076;DHT22;41951;49.022;12.066;2024-02-21T06:52:25;6.30;99.90
56076;DHT22;41951;49.022;12.066;2024-02-21T06:54:52;6.30;99.90
56076;DHT22;41951;49.022;12.066;2024-02-21T06:57:21;6.30;99.90
56076;DHT22;41951;49.022;12.066;2024-02-21T06:59:46;6.40;99.90
56076;DHT22;41951;49.022;12.066;2024-02-21T07:02:12;6.30;99.90
56076;DHT22;41951;49.022;12.066;2024-02-21T07:04:37;6.40;99.90
56076;DHT22;41951;49.022;12.066;2024-02-21T07:07:03;6.40;99.90
56076;DHT22;41951;49.022;12.066;2024-02-21T07:09:29;6.40;99.90
56076;DHT22;41951;49.022;12.066;2024-02-21T07:11:57;6.40;99.90
56076;DHT22;41951;49.022;12.066;2024-02-21T07:14:23;6.40;99.90
56076;DHT22;41951;49.022;12.066;2024-02-21T07:16:48;6.50;99.90
56076;DHT22;41951;49.022;12.066;2024-02-21T07:19:14;6.50;99.90
56076;DHT22;41951;49.022;12.066;2024-02-21T07:21:39;6.50;99.90
56076;DHT22;41951;49.022;12.066;2024-02-21T07:24:07;6.50;99.90
56076;DHT22;41951;49.022;12.066;2024-02-21T07:26:33;6.50;99.90
56076;DHT22;41951;49.022;12.066;2024-02-21T07:28:59;6.60;99.90
56076;DHT22;41951;49.022;12.066;2024-02-21T07:31:24;6.60;99.90
56076;DHT22;41951;49.022;12.066;2024-02-21T07:33:50;6.60;99.90
56076;DHT22;41951;49.022;12.066;2024-02-21T07:36:28;6.60;99.90
56076;DHT22;41951;49.022;12.066;2024-02-21T07:38:53;6.60;99.90
56076;DHT22;41951;49.022;12.066;2024-02-21T07:41:19;6.70;99.90
56076;DHT22;41951;49.022;12.066;2024-02-21T07:43:44;6.70;99.90
56076;DHT22;41951;49.022;12.066;2024-02-21T07:46:10;6.70;99.90
56076;DHT22;41951;49.022;12.066;2024-02-21T07:48:35;6.70;99.90
56076;DHT22;41951;49.022;12.066;2024-02-21T07:51:01;6.70;99.90
56076;DHT22;41951;49.022;12.066;2024-02-21T07:53:27;6.80;99.90
56076;DHT22;41951;49.022;12.066;2024-02-21T07:55:52;6.80;99.90
56076;DHT22;41951;49.022;12.066;2024-02-21T07:58:18;6.80;99.90
56076;DHT22;41951;49.022;12.066;2024-02-21T08:00:43;6.80;99.90
56076;DHT22;41951;49.022;12.066;2024-02-21T08:03:09;6.80;99.90
56076;DHT22;41951;49.022;12.066;2024-02-21T08:05:35;6.80;99.90
56076;DHT22;41951;49.022;12.066;2024-02-21T08:08:00;6.90;99.90
56076;DHT22;41951;49.022;12.066;2024-02-21T08:10:26;6.90;99.90
56076;DHT22;41951;49.022;12.066;2024-02-21T08:12:51;6.90;99.90
56076;DHT22;41951;49.022;12.066;2024-02-21T08:15:17;7.10;99.90
56076;DHT22;41951;49.022;12.066;2024-02-21T08:17:42;7.10;99.90
56076;DHT22;41951;49.022;12.066;2024-02-21T08:20:09;7.20;99.90
56076;DHT22;41951;49.022;12.066;2024-02-21T08:22:37;7.20;99.90
56076;DHT22;41951;49.022;12.066;2024-02-21T08:25:03;7.30;99.90
56076;DHT22;41951;49.022;12.066;2024-02-21T08:27:30;7.30;99.90
56076;DHT22;41951;49.022;12.066;2024-02-21T08:29:56;7.40;99.90
56076;DHT22;41951;49.022;12.066;2024-02-21T08:32:22;7.50;99.90
56076;DHT22;41951;49.022;12.066;2024-02-21T08:34:47;7.50;99.90
56076;DHT22;41951;49.022;12.066;2024-02-21T08:37:13;7.50;99.90
56076;DHT22;41951;49.022;12.066;2024-02-21T08:39:38;7.40;99.90
56076;DHT22;41951;49.022;12.066;2024-02-21T08:42:04;7.50;99.90
56076;DHT22;41951;49.022;12.066;2024-02-21T08:44:30;7.50;99.90
56076;DHT22;41951;49.022;12.066;2024-02-21T08:46:55;7.60;99.90
56076;DHT22;41951;49.022;12.066;2024-02-21T08:49:21;7.70;99.90
56076;DHT22;41951;49.022;12.066;2024-02-21T08:51:47;7.70;99.90
56076;DHT22;41951;49.022;12.066;2024-02-21T08:54:13;7.60;99.90
56076;DHT22;41951;49.022;12.066;2024-02-21T08:56:38;7.60;99.90
56076;DHT22;41951;49.022;12.066;2024-02-21T08:59:04;7.60;99.90
56076;DHT22;41951;49.022;12.066;2024-02-21T09:01:29;7.70;99.90
56076;DHT22;41951;49.022;12.066;2024-02-21T09:03:55;7.80;99.90
56076;DHT22;41951;49.022;12.066;2024-02-21T09:06:22;7.90;99.90
56076;DHT22;41951;49.022;12.066;2024-02-21T09:08:48;7.90;99.90
56076;DHT22;41951;49.022;12.066;2024-02-21T09:11:13;8.00;99.90
56076;DHT22;41951;49.022;12.066;2024-02-21T09:13:39;8.20;99.90
56076;DHT22;41951;49.022;12.066;2024-02-21T09:16:05;8.30;99.90
56076;DHT22;41951;49.022;12.066;2024-02-21T09:18:31;8.50;99.90
56076;DHT22;41951;49.022;12.066;2024-02-21T09:20:57;8.60;99.90
56076;DHT22;41951;49.022;12.066;2024-02-21T09:23:26;8.50;99.90
56076;DHT22;41951;49.022;12.066;2024-02-21T09:25:51;8.60;99.90
56076;DHT22;41951;49.022;12.066;2024-02-21T09:28:17;8.60;99.90
56076;DHT22;41951;49.022;12.066;2024-02-21T09:30:42;8.70;99.90
56076;DHT22;41951;49.022;12.066;2024-02-21T09:33:08;8.70;99.90
56076;DHT22;41951;49.022;12.066;2024-02-21T09:35:34;8.80;99.90
56076;DHT22;41951;49.022;12.066;2024-02-21T09:37:59;8.90;99.90
56076;DHT22;41951;49.022;12.066;2024-02-21T09:40:25;8.90;99.90
56076;DHT22;41951;49.022;12.066;2024-02-21T09:43:02;9.00;99.90
56076;DHT22;41951;49.022;12.066;2024-02-21T09:45:29;9.00;99.90
56076;DHT22;41951;49.022;12.066;2024-02-21T09:50:45;9.20;99.90
56076;DHT22;41951;49.022;12.066;2024-02-21T09:53:13;9.20;99.90
56076;DHT22;41951;49.022;12.066;2024-02-21T09:55:40;9.40;99.90
56076;DHT22;41951;49.022;12.066;2024-02-21T09:58:07;9.40;99.90
56076;DHT22;41951;49.022;12.066;2024-02-21T10:00:34;9.40;99.90
56076;DHT22;41951;49.022;12.066;2024-02-21T10:03:00;9.50;99.90
56076;DHT22;41951;49.022;12.066;2024-02-21T10:05:26;9.50;99.90
56076;DHT22;41951;49.022;12.066;2024-02-21T10:07:52;9.40;99.90
56076;DHT22;41951;49.022;12.066;2024-02-21T10:10:19;9.50;99.90
56076;DHT22;41951;49.022;12.066;2024-02-21T10:12:51;9.50;99.90
56076;DHT22;41951;49.022;12.066;2024-02-21T10:15:20;9.60;99.90
56076;DHT22;41951;49.022;12.066;2024-02-21T10:17:48;9.70;99.90
56076;DHT22;41951;49.022;12.066;2024-02-21T10:20:13;9.70;99.90
56076;DHT22;41951;49.022;12.066;2024-02-21T10:22:40;9.70;99.90
56076;DHT22;41951;49.022;12.066;2024-02-21T10:25:10;9.70;99.90
56076;DHT22;41951;49.022;12.066;2024-02-21T10:27:38;9.70;99.90
56076;DHT22;41951;49.022;12.066;2024-02-21T10:30:12;9.70;99.90
56076;DHT22;41951;49.022;12.066;2024-02-21T10:35:29;9.90;99.90
56076;DHT22;41951;49.022;12.066;2024-02-21T10:37:55;9.90;99.90
56076;DHT22;41951;49.022;12.066;2024-02-21T10:40:25;10.00;99.90
56076;DHT22;41951;49.022;12.066;2024-02-21T10:42:58;10.00;99.90
56076;DHT22;41951;49.022;12.066;2024-02-21T10:45:31;10.10;99.90
56076;DHT22;41951;49.022;12.066;2024-02-21T10:48:13;10.20;99.90
56076;DHT22;41951;49.022;12.066;2024-02-21T10:51:03;10.30;99.90
56076;DHT22;41951;49.022;12.066;2024-02-21T10:56:31;10.50;99.90
56076;DHT22;41951;49.022;12.066;2024-02-21T10:59:05;10.70;99.90
56076;DHT22;41951;49.022;12.066;2024-02-21T11:01:31;10.60;99.90
56076;DHT22;41951;49.022;12.066;2024-02-21T11:04:08;10.50;99.90
56076;DHT22;41951;49.022;12.066;2024-02-21T11:06:38;10.50;99.90
56076;DHT22;41951;49.022;12.066;2024-02-21T11:09:04;10.50;99.90
56076;DHT22;41951;49.022;12.066;2024-02-21T11:12:02;10.50;99.90
56076;DHT22;41951;49.022;12.066;2024-02-21T11:14:28;10.60;99.90
56076;DHT22;41951;49.022;12.066;2024-02-21T11:16:54;10.60;99.90
56076;DHT22;41951;49.022;12.066;2024-02-21T11:19:22;10.60;99.90
56076;DHT22;41951;49.022;12.066;2024-02-21T11:21:49;10.60;99.90
56076;DHT22;41951;49.022;12.066;2024-02-21T11:24:32;10.70;99.90
56076;DHT22;41951;49.022;12.066;2024-02-21T11:27:19;10.60;99.90
56076;DHT22;41951;49.022;12.066;2024-02-21T11:29:46;10.60;99.90
56076;DHT22;41951;49.022;12.066;2024-02-21T11:32:19;10.70;99.90
56076;DHT22;41951;49.022;12.066;2024-02-21T11:34:59;10.70;99.90
56076;DHT22;41951;49.022;12.066;2024-02-21T11:37:30;10.80;99.90
56076;DHT22;41951;49.022;12.066;2024-02-21T11:39:56;10.90;99.90
56076;DHT22;41951;49.022;12.066;2024-02-21T11:42:22;11.60;99.90
56076;DHT22;41951;49.022;12.066;2024-02-21T11:44:48;11.00;99.90
56076;DHT22;41951;49.022;12.066;2024-02-21T11:47:14;11.10;99.90
56076;DHT22;41951;49.022;12.066;2024-02-21T11:49:45;11.00;99.90
56076;DHT22;41951;49.022;12.066;2024-02-21T11:52:12;11.00;99.90
56076;DHT22;41951;49.022;12.066;2024-02-21T11:54:40;11.00;99.90
56076;DHT22;41951;49.022;12.066;2024-02-21T11:57:06;11.10;99.90
56076;DHT22;41951;49.022;12.066;2024-02-21T11:59:32;11.10;99.90
56076;DHT22;41951;49.022;12.066;2024-02-21T12:02:00;11.20;99.90
56076;DHT22;41951;49.022;12.066;2024-02-21T12:04:26;11.20;99.90
56076;DHT22;41951;49.022;12.066;2024-02-21T12:06:54;11.30;99.90
56076;DHT22;41951;49.022;12.066;2024-02-21T12:09:22;11.30;99.90
56076;DHT22;41951;49.022;12.066;2024-02-21T12:12:00;11.40;99.90
56076;DHT22;41951;49.022;12.066;2024-02-21T12:14:27;11.40;99.90
56076;DHT22;41951;49.022;12.066;2024-02-21T12:16:54;11.40;99.90
56076;DHT22;41951;49.022;12.066;2024-02-21T12:19:20;11.50;99.90
56076;DHT22;41951;49.022;12.066;2024-02-21T12:21:48;11.40;99.90
56076;DHT22;41951;49.022;12.066;2024-02-21T12:24:23;11.40;99.90
56076;DHT22;41951;49.022;12.066;2024-02-21T12:26:50;11.40;99.90
56076;DHT22;41951;49.022;12.066;2024-02-21T12:29:17;11.50;99.90
56076;DHT22;41951;49.022;12.066;2024-02-21T12:31:43;11.40;99.90
56076;DHT22;41951;49.022;12.066;2024-02-21T12:34:09;11.50;99.90
56076;DHT22;41951;49.022;12.066;2024-02-21T12:36:44;11.60;99.90
56076;DHT22;41951;49.022;12.066;2024-02-21T12:39:10;11.60;99.90
56076;DHT22;41951;49.022;12.066;2024-02-21T12:41:36;11.70;99.90
56076;DHT22;41951;49.022;12.066;2024-02-21T12:44:09;11.60;99.90
56076;DHT22;41951;49.022;12.066;2024-02-21T12:46:36;11.70;99.90
56076;DHT22;41951;49.022;12.066;2024-02-21T12:49:03;11.80;99.90
56076;DHT22;41951;49.022;12.066;2024-02-21T12:51:29;11.70;99.90
56076;DHT22;41951;49.022;12.066;2024-02-21T12:53:55;11.70;99.90
56076;DHT22;41951;49.022;12.066;2024-02-21T12:56:21;11.70;99.90
56076;DHT22;41951;49.022;12.066;2024-02-21T12:58:46;11.80;99.90
56076;DHT22;41951;49.022;12.066;2024-02-21T13:01:12;11.80;99.90
56076;DHT22;41951;49.022;12.066;2024-02-21T13:03:38;11.80;99.90
56076;DHT22;41951;49.022;12.066;2024-02-21T13:06:04;11.80;99.90
56076;DHT22;41951;49.022;12.066;2024-02-21T13:08:30;11.80;99.90
56076;DHT22;41951;49.022;12.066;2024-02-21T13:10:55;11.80;99.90
56076;DHT22;41951;49.022;12.066;2024-02-21T13:13:21;11.80;99.90
56076;DHT22;41951;49.022;12.066;2024-02-21T13:15:47;11.90;99.90
56076;DHT22;41951;49.022;12.066;2024-02-21T13:18:12;11.90;99.90
56076;DHT22;41951;49.022;12.066;2024-02-21T13:20:38;11.90;99.90
56076;DHT22;41951;49.022;12.066;2024-02-21T13:23:03;12.00;99.90
56076;DHT22;41951;49.022;12.066;2024-02-21T13:25:29;12.00;99.90
56076;DHT22;41951;49.022;12.066;2024-02-21T13:27:55;12.10;99.90
56076;DHT22;41951;49.022;12.066;2024-02-21T13:30:22;12.20;99.90
56076;DHT22;41951;49.022;12.066;2024-02-21T13:32:47;12.20;99.90
56076;DHT22;41951;49.022;12.066;2024-02-21T13:35:13;12.30;99.90
56076;DHT22;41951;49.022;12.066;2024-02-21T13:37:40;12.50;99.90
56076;DHT22;41951;49.022;12.066;2024-02-21T13:40:07;12.70;99.90
56076;DHT22;41951;49.022;12.066;2024-02-21T13:42:34;12.70;99.90
56076;DHT22;41951;49.022;12.066;2024-02-21T13:45:00;12.90;99.90
56076;DHT22;41951;49.022;12.066;2024-02-21T13:47:26;13.00;99.90
56076;DHT22;41951;49.022;12.066;2024-02-21T13:49:52;13.00;99.90
56076;DHT22;41951;49.022;12.066;2024-02-21T13:52:17;12.90;99.90
56076;DHT22;41951;49.022;12.066;2024-02-21T13:54:45;12.60;99.90
56076;DHT22;41951;49.022;12.066;2024-02-21T13:57:10;12.40;99.90
56076;DHT22;41951;49.022;12.066;2024-02-21T13:59:36;12.60;99.90
56076;DHT22;41951;49.022;12.066;2024-02-21T14:02:02;12.70;99.90
56076;DHT22;41951;49.022;12.066;2024-02-21T14:04:27;12.60;99.90
56076;DHT22;41951;49.022;12.066;2024-02-21T14:06:55;12.80;99.90
56076;DHT22;41951;49.022;12.066;2024-02-21T14:09:21;12.80;99.90
56076;DHT22;41951;49.022;12.066;2024-02-21T14:11:46;12.70;99.90
56076;DHT22;41951;49.022;12.066;2024-02-21T14:14:12;12.70;99.90
56076;DHT22;41951;49.022;12.066;2024-02-21T14:16:37;12.70;99.90
56076;DHT22;41951;49.022;12.066;2024-02-21T14:19:03;12.50;99.90
56076;DHT22;41951;49.022;12.066;2024-02-21T14:21:28;12.30;99.90
56076;DHT22;41951;49.022;12.066;2024-02-21T14:23:54;12.20;99.90
56076;DHT22;41951;49.022;12.066;2024-02-21T14:26:20;12.20;99.90
56076;DHT22;41951;49.022;12.066;2024-02-21T14:28:47;12.30;99.90
56076;DHT22;41951;49.022;12.066;2024-02-21T14:31:12;12.30;99.90
56076;DHT22;41951;49.022;12.066;2024-02-21T14:33:38;12.30;99.90
56076;DHT22;41951;49.022;12.066;2024-02-21T14:36:04;12.30;99.90
56076;DHT22;41951;49.022;12.066;2024-02-21T14:38:30;12.40;99.90
56076;DHT22;41951;49.022;12.066;2024-02-21T14:40:55;12.40;99.90
56076;DHT22;41951;49.022;12.066;2024-02-21T14:43:21;12.30;99.90
56076;DHT22;41951;49.022;12.066;2024-02-21T14:45:47;12.20;99.90
56076;DHT22;41951;49.022;12.066;2024-02-21T14:48:14;12.30;99.90
56076;DHT22;41951;49.022;12.066;2024-02-21T14:50:39;12.20;99.90
56076;DHT22;41951;49.022;12.066;2024-02-21T14:53:06;12.20;99.90
56076;DHT22;41951;49.022;12.066;2024-02-21T14:55:34;12.20;99.90
56076;DHT22;41951;49.022;12.066;2024-02-21T14:58:00;12.20;99.90
56076;DHT22;41951;49.022;12.066;2024-02-21T15:00:26;12.10;99.90
56076;DHT22;41951;49.022;12.066;2024-02-21T15:02:58;12.10;99.90
56076;DHT22;41951;49.022;12.066;2024-02-21T15:05:24;12.00;99.90
56076;DHT22;41951;49.022;12.066;2024-02-21T15:07:50;12.00;99.90
56076;DHT22;41951;49.022;12.066;2024-02-21T15:10:15;12.00;99.90
56076;DHT22;41951;49.022;12.066;2024-02-21T15:12:44;12.00;99.90
56076;DHT22;41951;49.022;12.066;2024-02-21T15:15:10;11.90;99.90
56076;DHT22;41951;49.022;12.066;2024-02-21T15:17:35;11.80;99.90
56076;DHT22;41951;49.022;12.066;2024-02-21T15:20:01;11.80;99.90
56076;DHT22;41951;49.022;12.066;2024-02-21T15:22:27;11.80;99.90
56076;DHT22;41951;49.022;12.066;2024-02-21T15:24:53;11.80;99.90
56076;DHT22;41951;49.022;12.066;2024-02-21T15:27:18;11.80;99.90
56076;DHT22;41951;49.022;12.066;2024-02-21T15:29:44;11.70;99.90